Time;durP1;ratioP1;P1;durP2;ratioP2;P2;SDS_P1;SDS_P2;PMS_P1;PMS_P2;Temp;Humidity;BMP_temperature;BMP_pressure;BME280_temperature;BME280_humidity;BME280_pressure;Samples;Min_cycle;Max_cycle;Signal;HPM_P1;HPM_P2
2022/04/16 00:00:00;;;;;;;17.70;9.33;;;;;;;11.43;70.48;99068.59;1716341;82;20907;-66
2022/04/16 00:02:34;;;;;;;20.32;10.03;;;;;;;11.42;70.64;99079.35;1710781;83;21125;-68
2022/04/16 00:05:07;;;;;;;15.30;9.78;;;;;;;11.38;70.86;99068.78;1727113;81;21169;-67
2022/04/16 00:07:38;;;;;;;17.77;10.48;;;;;;;11.35;70.99;99072.20;1726526;82;21557;-67
2022/04/16 00:10:10;;;;;;;20.60;11.05;;;;;;;11.31;71.42;99074.80;1722532;82;20903;-67
2022/04/16 00:12:44;;;;;;;18.32;10.63;;;;;;;11.28;71.46;99067.22;1725853;82;20895;-67
2022/04/16 00:15:12;;;;;;;19.00;10.50;;;;;;;11.27;71.32;99059.31;1724261;82;20990;-67
2022/04/16 00:17:43;;;;;;;15.50;10.35;;;;;;;11.22;71.98;99063.86;1732535;82;20968;-66
2022/04/16 00:20:13;;;;;;;18.82;10.30;;;;;;;11.18;71.94;99051.92;1737392;82;21476;-66
2022/04/16 00:22:42;;;;;;;19.32;10.80;;;;;;;11.17;71.89;99056.37;1738807;82;20952;-67
2022/04/16 00:25:13;;;;;;;18.12;10.80;;;;;;;11.14;71.79;99050.97;1735396;82;21518;-66
2022/04/16 00:27:49;;;;;;;19.45;10.40;;;;;;;11.12;71.97;99044.20;1698210;82;20915;-67
2022/04/16 00:30:17;;;;;;;21.17;11.08;;;;;;;11.10;72.08;99029.98;1726927;82;21246;-67
2022/04/16 00:32:51;;;;;;;19.23;11.78;;;;;;;11.09;72.49;99032.50;1681018;83;20941;-67
2022/04/16 00:35:24;;;;;;;21.93;11.08;;;;;;;11.07;72.55;99030.08;1732695;82;26299;-67
2022/04/16 00:37:57;;;;;;;19.62;10.38;;;;;;;11.05;72.84;99030.98;1730566;82;21011;-68
2022/04/16 00:40:30;;;;;;;26.12;11.33;;;;;;;11.02;72.88;99023.40;1726128;82;20987;-67
2022/04/16 00:43:00;;;;;;;17.87;10.23;;;;;;;11.01;72.83;99023.73;1729888;82;22026;-67
2022/04/16 00:45:31;;;;;;;22.98;11.33;;;;;;;11.00;73.25;99050.96;1725418;82;20919;-67
2022/04/16 00:48:07;;;;;;;22.67;11.20;;;;;;;10.95;73.63;99040.99;1734294;82;20963;-68
2022/04/16 00:50:34;;;;;;;19.90;10.68;;;;;;;10.94;73.74;99032.52;1729246;82;21432;-68
2022/04/16 00:53:01;;;;;;;19.67;10.72;;;;;;;10.91;73.83;99027.69;1725907;82;21431;-68
2022/04/16 00:55:36;;;;;;;21.10;11.78;;;;;;;10.89;74.43;99049.18;1734629;82;20913;-68
2022/04/16 00:58:06;;;;;;;21.82;11.83;;;;;;;10.85;74.63;99062.77;1730070;82;20983;-68
2022/04/16 01:00:35;;;;;;;22.32;10.85;;;;;;;10.81;74.83;99070.05;1731931;82;21462;-68
2022/04/16 01:03:05;;;;;;;27.15;12.00;;;;;;;10.78;75.28;99070.70;1724296;82;20963;-69
2022/04/16 01:05:37;;;;;;;21.97;11.57;;;;;;;10.75;75.35;99076.84;1719111;82;20920;-69
2022/04/16 01:08:10;;;;;;;24.70;11.43;;;;;;;10.73;75.55;99074.19;1736279;82;21163;-70
2022/04/16 01:10:46;;;;;;;21.10;11.60;;;;;;;10.71;76.05;99077.83;1722561;81;37689;-69
2022/04/16 01:13:18;;;;;;;19.48;11.10;;;;;;;10.69;76.01;99082.84;1733106;81;20988;-68
2022/04/16 01:15:47;;;;;;;20.57;11.83;;;;;;;10.66;76.17;99082.12;1683464;82;21009;-69
2022/04/16 01:18:14;;;;;;;19.75;10.48;;;;;;;10.63;76.56;99092.38;1705391;82;21079;-69
2022/04/16 01:20:43;;;;;;;20.72;11.05;;;;;;;10.60;76.67;99076.00;1737042;81;21416;-68
2022/04/16 01:23:15;;;;;;;18.98;10.80;;;;;;;10.59;76.80;99082.05;1723933;82;21417;-67
2022/04/16 01:25:45;;;;;;;18.95;11.38;;;;;;;10.58;76.83;99094.17;1696706;82;20929;-67
2022/04/16 01:28:27;;;;;;;20.45;10.68;;;;;;;10.57;76.93;99099.41;1735467;82;21081;-68
2022/04/16 01:31:00;;;;;;;19.73;10.20;;;;;;;10.55;77.23;99082.47;1687737;82;21018;-68
2022/04/16 01:33:30;;;;;;;22.50;10.55;;;;;;;10.54;77.38;99082.23;1724310;81;21259;-68
2022/04/16 01:35:59;;;;;;;23.15;11.78;;;;;;;10.54;77.19;99076.73;1714068;81;20943;-68
2022/04/16 01:38:28;;;;;;;22.52;11.38;;;;;;;10.53;77.16;99075.12;1719235;81;20939;-68
2022/04/16 01:41:02;;;;;;;21.85;11.68;;;;;;;10.52;77.25;99082.31;1725978;82;20900;-67
2022/04/16 01:43:33;;;;;;;22.13;11.40;;;;;;;10.50;77.41;99084.02;1740682;81;20962;-67
2022/04/16 01:46:06;;;;;;;21.50;11.22;;;;;;;10.48;77.36;99061.58;1714294;82;20929;-67
2022/04/16 01:48:38;;;;;;;19.07;11.45;;;;;;;10.49;77.28;99065.94;1693942;81;21476;-67
2022/04/16 01:51:08;;;;;;;20.97;11.22;;;;;;;10.50;77.17;99069.48;1722445;81;21592;-68
2022/04/16 01:53:44;;;;;;;18.65;10.55;;;;;;;10.49;77.33;99063.76;1737985;81;21591;-68
2022/04/16 01:56:18;;;;;;;18.90;11.08;;;;;;;10.46;77.51;99069.33;1740674;81;20986;-68
2022/04/16 01:58:47;;;;;;;20.88;11.12;;;;;;;10.44;77.63;99062.55;1710752;82;21189;-68
2022/04/16 02:01:13;;;;;;;18.05;10.63;;;;;;;10.43;77.56;99062.31;1720672;82;20871;-69
2022/04/16 02:03:41;;;;;;;16.12;9.38;;;;;;;10.42;77.59;99056.59;1730038;81;22225;-68
2022/04/16 02:06:08;;;;;;;20.23;10.25;;;;;;;10.43;77.69;99044.48;1738709;81;20965;-67
2022/04/16 02:08:42;;;;;;;18.82;10.48;;;;;;;10.40;77.70;99051.42;1735238;81;21053;-67
2022/04/16 02:11:13;;;;;;;20.00;10.93;;;;;;;10.39;77.87;99053.96;1724338;82;20954;-67
2022/04/16 02:13:42;;;;;;;21.73;10.38;;;;;;;10.35;78.19;99051.62;1716912;81;20985;-68
2022/04/16 02:16:13;;;;;;;19.77;10.70;;;;;;;10.32;78.78;99056.39;1730446;82;20953;-68
2022/04/16 02:18:45;;;;;;;18.62;10.53;;;;;;;10.30;79.21;99056.48;1709503;81;20925;-67
2022/04/16 02:21:19;;;;;;;22.48;11.10;;;;;;;10.27;79.57;99063.42;1719729;82;21592;-68
2022/04/16 02:23:48;;;;;;;21.25;11.55;;;;;;;10.24;79.95;99056.65;1675429;84;20975;-68
2022/04/16 02:26:26;;;;;;;17.50;11.18;;;;;;;10.21;80.33;99065.53;1707644;81;20945;-68
2022/04/16 02:28:54;;;;;;;17.62;10.93;;;;;;;10.19;81.03;99051.33;1737630;81;20945;-68
2022/04/16 02:31:23;;;;;;;17.87;10.78;;;;;;;10.16;81.19;99052.52;1742230;81;21457;-68
2022/04/16 02:33:49;;;;;;;20.30;12.23;;;;;;;10.15;82.36;99055.82;1737056;81;20933;-69
2022/04/16 02:36:19;;;;;;;21.95;11.57;;;;;;;10.14;82.79;99083.57;1723560;81;21679;-68
2022/04/16 02:38:47;;;;;;;21.90;11.68;;;;;;;10.10;83.34;99083.98;1732161;81;21505;-68
2022/04/16 02:41:14;;;;;;;18.17;11.20;;;;;;;10.06;84.13;99083.02;1740283;81;20957;-68
2022/04/16 02:43:41;;;;;;;22.93;11.63;;;;;;;10.01;84.62;99083.98;1714489;82;21089;-68
2022/04/16 02:48:52;;;;;;;24.47;12.37;;;;;;;9.96;85.36;99088.25;1729303;82;21172;-68
2022/04/16 02:51:19;;;;;;;19.23;12.98;;;;;;;9.95;85.95;99085.27;1736738;81;21062;-68
2022/04/16 02:53:46;;;;;;;23.10;13.05;;;;;;;9.92;86.01;99086.72;1721243;81;20935;-68
2022/04/16 02:56:13;;;;;;;18.57;12.40;;;;;;;9.92;86.30;99090.03;1708451;81;21446;-67
2022/04/16 02:58:41;;;;;;;23.25;12.07;;;;;;;9.89;86.77;99091.48;1712351;82;20852;-68
2022/04/16 03:01:07;;;;;;;22.70;12.10;;;;;;;9.87;87.16;99092.36;1732706;82;21561;-68
2022/04/16 03:03:34;;;;;;;17.92;12.07;;;;;;;9.87;87.18;99082.77;1732467;81;20858;-68
2022/04/16 03:06:01;;;;;;;19.65;11.70;;;;;;;9.84;87.43;99089.45;1719163;82;21073;-69
2022/04/16 03:08:28;;;;;;;21.15;12.25;;;;;;;9.82;87.79;99095.26;1727418;82;20937;-68
2022/04/16 03:10:56;;;;;;;18.50;11.60;;;;;;;9.81;88.30;99089.56;1729421;81;20945;-69
2022/04/16 03:13:23;;;;;;;21.35;13.15;;;;;;;9.78;89.17;99088.84;1730803;82;21413;-69
2022/04/16 03:18:36;;;;;;;21.62;12.68;;;;;;;9.72;90.86;99092.86;1736209;82;22439;-68
2022/04/16 03:21:03;;;;;;;30.77;13.65;;;;;;;9.70;91.01;99091.00;1723282;81;21026;-68
2022/04/16 03:23:31;;;;;;;25.92;13.48;;;;;;;9.68;91.79;99092.45;1734958;81;21168;-69
2022/04/16 03:26:00;;;;;;;18.52;11.63;;;;;;;9.68;91.92;99086.41;1736001;81;21261;-69
2022/04/16 03:28:27;;;;;;;19.50;12.88;;;;;;;9.68;92.99;99084.23;1731238;82;20985;-69
2022/04/16 03:30:54;;;;;;;18.20;11.97;;;;;;;9.68;92.79;99080.12;1728700;81;20863;-69
2022/04/16 03:33:22;;;;;;;22.20;12.35;;;;;;;9.68;92.86;99085.03;1710909;82;20911;-68
2022/04/16 03:35:51;;;;;;;20.10;13.00;;;;;;;9.68;93.10;99079.55;1722147;81;21469;-68
2022/04/16 03:38:19;;;;;;;19.10;12.30;;;;;;;9.69;93.49;99073.51;1689997;82;21166;-68
2022/04/16 03:40:48;;;;;;;21.02;13.25;;;;;;;9.69;93.74;99068.84;1723129;82;20900;-69
2022/04/16 03:43:19;;;;;;;21.17;13.15;;;;;;;9.70;93.96;99067.70;1746580;81;21602;-69
2022/04/16 03:45:48;;;;;;;19.52;14.13;;;;;;;9.71;94.08;99070.69;1728076;82;21093;-69
2022/04/16 03:48:15;;;;;;;21.95;13.08;;;;;;;9.72;94.46;99073.67;1727312;82;20881;-69
2022/04/16 03:50:41;;;;;;;18.98;12.15;;;;;;;9.69;94.47;99072.95;1729600;81;21058;-69
2022/04/16 03:53:08;;;;;;;18.00;12.20;;;;;;;9.68;94.59;99074.64;1737645;82;21497;-69
2022/04/16 04:01:08;;;;;;;22.05;13.32;;;;;;;9.65;95.36;99085.67;1728420;81;20965;-68
2022/04/16 04:03:36;;;;;;;23.90;14.87;;;;;;;9.65;95.71;99087.61;1725748;81;21209;-68
2022/04/16 04:06:03;;;;;;;20.85;12.68;;;;;;;9.63;95.80;99083.82;1741847;81;20893;-67
2022/04/16 04:08:31;;;;;;;20.15;14.10;;;;;;;9.62;95.88;99083.58;1749058;81;20917;-68
2022/04/16 04:10:58;;;;;;;21.55;13.30;;;;;;;9.62;95.89;99082.20;1727935;81;20937;-68
2022/04/16 04:13:25;;;;;;;22.77;14.03;;;;;;;9.66;95.80;99085.11;1740954;81;21072;-68
2022/04/16 04:15:53;;;;;;;20.40;12.73;;;;;;;9.69;95.68;99086.65;1742952;81;22051;-68
2022/04/16 04:18:22;;;;;;;19.40;12.93;;;;;;;9.71;95.76;99089.07;1730187;81;21124;-67
2022/04/16 04:20:48;;;;;;;20.35;13.88;;;;;;;9.71;95.77;99083.02;1718750;82;20902;-68
2022/04/16 04:23:15;;;;;;;22.80;15.48;;;;;;;9.71;95.64;99087.70;1740189;82;21046;-67
2022/04/16 04:25:41;;;;;;;22.82;14.30;;;;;;;9.70;96.06;99093.75;1735179;81;20886;-68
2022/04/16 04:28:08;;;;;;;22.70;13.32;;;;;;;9.72;95.83;99092.86;1749409;81;21211;-67
2022/04/16 04:30:36;;;;;;;19.62;14.05;;;;;;;9.72;95.91;99093.42;1733354;82;21008;-68
2022/04/16 04:33:04;;;;;;;31.55;15.45;;;;;;;9.73;95.68;99091.73;1725018;81;20953;-68
2022/04/16 04:35:33;;;;;;;28.38;13.72;;;;;;;9.77;95.72;99091.90;1721286;82;21442;-68
2022/04/16 04:38:00;;;;;;;23.65;14.28;;;;;;;9.81;95.56;99092.31;1731372;81;20950;-68
2022/04/16 04:40:28;;;;;;;23.75;14.18;;;;;;;9.84;95.49;99088.89;1719911;82;21158;-68
2022/04/16 04:42:55;;;;;;;18.80;13.50;;;;;;;9.88;95.56;99095.34;1732187;81;20850;-68
2022/04/16 04:45:22;;;;;;;18.87;13.13;;;;;;;9.94;95.40;99091.88;1733426;81;20858;-67
2022/04/16 04:47:50;;;;;;;23.80;14.95;;;;;;;9.98;95.39;99087.93;1730384;81;20925;-68
2022/04/16 04:50:16;;;;;;;21.80;13.43;;;;;;;10.00;95.21;99091.16;1717274;82;21033;-68
2022/04/16 04:52:43;;;;;;;27.87;16.07;;;;;;;10.07;95.23;99090.11;1721647;82;21810;-68
2022/04/16 04:55:12;;;;;;;28.12;15.83;;;;;;;10.10;94.93;99085.34;1718150;82;21027;-68
2022/04/16 04:57:42;;;;;;;29.70;16.62;;;;;;;10.14;94.97;99085.75;1716318;82;21467;-69
2022/04/16 05:00:14;;;;;;;24.85;16.05;;;;;;;10.19;94.68;99086.16;1733932;82;20929;-68
2022/04/16 05:02:47;;;;;;;24.77;15.98;;;;;;;10.28;95.08;99083.43;1723955;81;20935;-68
2022/04/16 05:05:15;;;;;;;21.75;13.88;;;;;;;10.36;94.33;99082.05;1723569;81;21142;-68
2022/04/16 05:07:42;;;;;;;27.25;16.30;;;;;;;10.42;94.22;99083.46;1723715;81;20932;-69
2022/04/16 05:10:09;;;;;;;24.50;16.15;;;;;;;10.49;93.85;99080.22;1713015;82;20993;-68
2022/04/16 05:12:37;;;;;;;27.37;16.62;;;;;;;10.59;93.56;99079.88;1698233;83;21157;-68
2022/04/16 05:15:07;;;;;;;23.05;14.78;;;;;;;10.67;92.97;99083.73;1717317;82;20933;-70
2022/04/16 05:17:37;;;;;;;26.55;17.07;;;;;;;10.74;93.06;99076.61;1741775;82;21539;-68
2022/04/16 05:20:08;;;;;;;25.45;17.50;;;;;;;10.82;92.07;99079.89;1701960;82;21000;-70
2022/04/16 05:22:34;;;;;;;23.25;15.78;;;;;;;10.90;92.16;99076.88;1721247;82;20885;-69
2022/04/16 05:25:03;;;;;;;26.37;16.87;;;;;;;11.03;91.56;99071.70;1726866;81;21018;-70
2022/04/16 05:27:30;;;;;;;31.05;16.02;;;;;;;11.11;90.11;99080.48;1727433;81;21097;-70
2022/04/16 05:30:06;;;;;;;25.77;16.00;;;;;;;11.07;89.25;99072.66;1715950;82;21809;-69
2022/04/16 05:32:40;;;;;;;23.77;16.70;;;;;;;11.05;89.76;99079.61;1711085;81;20931;-69
2022/04/16 05:35:09;;;;;;;21.77;14.78;;;;;;;11.11;90.02;99077.73;1706691;82;21509;-70
2022/04/16 05:37:37;;;;;;;24.72;17.05;;;;;;;11.22;89.22;99078.16;1714383;82;20999;-69
2022/04/16 05:40:04;;;;;;;24.63;16.60;;;;;;;11.24;87.68;99071.20;1710527;82;21015;-70
2022/04/16 05:42:31;;;;;;;24.52;15.80;;;;;;;11.18;87.55;99079.39;1737058;81;21078;-69
2022/04/16 05:45:03;;;;;;;25.48;16.42;;;;;;;11.11;87.87;99071.43;1730185;81;20859;-72
2022/04/16 05:47:30;;;;;;;24.27;15.70;;;;;;;11.11;87.95;99074.98;1734549;81;21083;-71
2022/04/16 05:49:56;;;;;;;23.22;15.88;;;;;;;11.16;87.19;99075.36;1724947;81;21047;-69
2022/04/16 05:52:23;;;;;;;22.80;15.40;;;;;;;11.17;86.84;99078.34;1734838;81;21012;-69
2022/04/16 05:54:51;;;;;;;20.35;14.35;;;;;;;11.20;86.38;99074.38;1714458;82;21141;-66
2022/04/16 05:57:19;;;;;;;23.77;14.73;;;;;;;11.24;86.13;99078.64;1709210;81;20935;-67
2022/04/16 05:59:49;;;;;;;21.12;14.30;;;;;;;11.30;86.01;99082.00;1722016;81;20987;-66
2022/04/16 06:02:16;;;;;;;21.60;14.30;;;;;;;11.43;85.59;99076.27;1686516;81;20869;-68
2022/04/16 06:04:42;;;;;;;21.10;14.07;;;;;;;11.64;84.90;99077.64;1736015;81;21474;-67
2022/04/16 06:07:10;;;;;;;21.10;14.47;;;;;;;11.79;84.19;99070.21;1731511;81;20911;-70
2022/04/16 06:09:38;;;;;;;21.62;13.48;;;;;;;11.95;83.42;99073.73;1698383;81;21109;-68
2022/04/16 06:12:05;;;;;;;22.42;14.50;;;;;;;12.09;82.12;99075.64;1699884;83;21491;-67
2022/04/16 06:14:32;;;;;;;24.63;14.73;;;;;;;12.13;81.20;99076.58;1690923;83;21023;-67
2022/04/16 06:17:04;;;;;;;23.00;14.65;;;;;;;12.17;80.67;99076.11;1694753;83;21039;-68
2022/04/16 06:19:34;;;;;;;21.07;14.90;;;;;;;12.17;79.91;99070.03;1672918;83;21268;-68
2022/04/16 06:22:12;;;;;;;25.45;14.07;;;;;;;12.22;80.38;99077.27;1678372;84;21577;-68
2022/04/16 06:24:48;;;;;;;21.80;13.20;;;;;;;12.30;79.72;99065.95;1698749;83;20908;-69
2022/04/16 06:27:19;;;;;;;20.77;13.93;;;;;;;12.40;79.22;99067.72;1697128;83;21110;-70
2022/04/16 06:29:47;;;;;;;18.95;13.72;;;;;;;12.49;78.00;99065.68;1699307;83;20940;-70
2022/04/16 06:32:17;;;;;;;20.65;13.38;;;;;;;12.58;77.74;99062.03;1709229;83;21439;-71
2022/04/16 06:34:46;;;;;;;21.70;13.95;;;;;;;12.62;76.85;99057.45;1699240;83;20947;-70
2022/04/16 06:37:22;;;;;;;20.37;13.35;;;;;;;12.61;76.61;99065.48;1708130;82;21574;-68
2022/04/16 06:39:53;;;;;;;21.55;14.63;;;;;;;12.57;76.69;99070.86;1726736;81;20967;-67
2022/04/16 06:42:23;;;;;;;21.12;13.13;;;;;;;12.61;77.46;99072.36;1722686;81;21443;-67
2022/04/16 06:44:52;;;;;;;22.15;13.58;;;;;;;12.75;76.43;99070.87;1702493;83;21137;-70
2022/04/16 06:47:29;;;;;;;21.20;13.30;;;;;;;12.80;75.05;99074.79;1701302;83;21509;-71
2022/04/16 06:49:59;;;;;;;20.00;13.75;;;;;;;12.80;75.16;99071.23;1695873;82;22298;-69
2022/04/16 06:52:26;;;;;;;20.27;12.13;;;;;;;12.88;75.69;99066.20;1697387;83;21103;-76
2022/04/16 06:54:59;;;;;;;20.68;14.53;;;;;;;13.15;74.10;99061.97;1687622;82;21021;-76
2022/04/16 06:57:28;;;;;;;16.67;11.75;;;;;;;13.35;73.48;99075.41;1659121;84;20956;-76
2022/04/16 06:59:56;;;;;;;16.35;11.35;;;;;;;13.55;72.00;99068.97;1690362;84;21637;-70
2022/04/16 07:02:23;;;;;;;20.65;12.73;;;;;;;13.62;70.09;99074.70;1685198;84;21002;-71
2022/04/16 07:04:58;;;;;;;17.60;11.75;;;;;;;13.61;70.54;99079.98;1701835;82;20920;-72
2022/04/16 07:07:26;;;;;;;20.05;12.33;;;;;;;13.59;70.17;99083.67;1692056;82;21108;-72
2022/04/16 07:09:54;;;;;;;22.35;12.98;;;;;;;13.51;68.94;99087.35;1662064;85;21198;-72
2022/04/16 07:12:28;;;;;;;16.65;11.95;;;;;;;13.38;69.52;99087.13;1639104;86;20964;-67
2022/04/16 07:14:58;;;;;;;19.87;12.85;;;;;;;13.28;70.07;99087.62;1649043;86;22252;-66
2022/04/16 07:17:27;;;;;;;18.42;13.00;;;;;;;13.19;70.16;99087.73;1647825;86;21025;-68
2022/04/16 07:19:56;;;;;;;15.18;10.95;;;;;;;12.98;70.32;99088.36;1653423;86;20873;-72
2022/04/16 07:22:23;;;;;;;19.23;12.07;;;;;;;12.82;70.69;99086.84;1650029;86;21192;-70
2022/04/16 07:24:53;;;;;;;18.62;12.05;;;;;;;12.69;70.58;99092.92;1668026;83;21007;-70
2022/04/16 07:27:22;;;;;;;16.30;10.65;;;;;;;12.56;71.50;99096.78;1656028;83;20960;-71
2022/04/16 07:29:58;;;;;;;22.62;11.85;;;;;;;12.45;72.27;99095.03;1652813;86;21015;-67
2022/04/16 07:32:21;;;;;;;22.10;11.70;;;;;;;12.37;72.53;99089.03;1708188;83;21572;-73
2022/04/16 07:34:49;;;;;;;17.45;11.85;;;;;;;12.34;72.15;99102.09;1699368;83;21238;-69
2022/04/16 07:37:17;;;;;;;17.52;11.28;;;;;;;12.30;71.64;99103.91;1666116;83;20918;-68
2022/04/16 07:39:46;;;;;;;19.05;11.70;;;;;;;12.33;71.77;99110.69;1713988;80;21072;-67
2022/04/16 07:42:13;;;;;;;19.67;12.75;;;;;;;12.41;71.53;99109.23;1703505;82;20938;-67
2022/04/16 07:44:45;;;;;;;19.05;11.68;;;;;;;12.53;69.90;99109.28;1693800;83;21476;-68
2022/04/16 07:47:15;;;;;;;18.25;10.82;;;;;;;12.56;70.06;99114.11;1686237;83;21268;-67
2022/04/16 07:49:44;;;;;;;15.78;10.72;;;;;;;12.61;69.31;99116.42;1718052;83;21035;-67
2022/04/16 07:52:11;;;;;;;15.80;9.53;;;;;;;12.67;69.36;99115.06;1702950;83;20973;-68
2022/04/16 07:54:38;;;;;;;16.62;10.63;;;;;;;12.79;69.49;99123.33;1703607;83;21587;-67
2022/04/16 07:57:05;;;;;;;17.42;11.03;;;;;;;12.95;68.86;99109.14;1720808;82;20925;-68
2022/04/16 07:59:33;;;;;;;18.35;11.60;;;;;;;13.08;68.92;99114.91;1700127;83;22342;-69
2022/04/16 08:02:02;;;;;;;15.40;10.55;;;;;;;13.20;68.67;99109.44;1691888;83;21078;-68
2022/04/16 08:04:30;;;;;;;17.20;11.22;;;;;;;13.36;68.41;99108.72;1702353;83;21681;-67
2022/04/16 08:06:57;;;;;;;17.27;10.95;;;;;;;13.50;68.59;99109.98;1698625;83;20985;-68
2022/04/16 08:09:27;;;;;;;17.95;12.78;;;;;;;13.69;67.95;99105.84;1697267;83;21546;-67
2022/04/16 08:11:54;;;;;;;17.45;11.35;;;;;;;13.79;66.46;99105.36;1686774;83;21132;-67
2022/04/16 08:14:23;;;;;;;15.03;10.53;;;;;;;13.84;66.53;99112.83;1705545;83;20942;-67
2022/04/16 08:16:53;;;;;;;18.52;12.10;;;;;;;13.96;66.19;99111.97;1694310;83;20968;-68
2022/04/16 08:19:20;;;;;;;19.77;12.58;;;;;;;14.14;64.98;99106.41;1694285;83;21676;-68
2022/04/16 08:21:47;;;;;;;17.23;12.25;;;;;;;14.25;65.17;99107.30;1704195;83;20982;-69
2022/04/16 08:24:22;;;;;;;18.65;12.23;;;;;;;14.33;63.84;99107.15;1672034;83;21172;-68
2022/04/16 08:26:48;;;;;;;17.02;12.28;;;;;;;14.42;64.75;99111.17;1691401;83;20982;-67
2022/04/16 08:29:15;;;;;;;16.12;11.68;;;;;;;14.61;63.45;99101.63;1691023;83;21595;-68
2022/04/16 08:31:48;;;;;;;23.18;12.07;;;;;;;14.66;63.02;99101.94;1688760;83;20983;-68
2022/04/16 08:34:15;;;;;;;18.95;12.33;;;;;;;14.66;63.20;99101.36;1690317;81;21032;-68
2022/04/16 08:36:47;;;;;;;17.73;12.23;;;;;;;14.79;62.36;99099.34;1725893;82;21170;-68
2022/04/16 08:39:17;;;;;;;17.32;11.75;;;;;;;14.86;61.76;99078.80;1722555;82;21500;-69
2022/04/16 08:41:47;;;;;;;18.55;12.53;;;;;;;14.99;61.91;99082.29;1733019;82;21090;-68
2022/04/16 08:44:19;;;;;;;17.62;12.15;;;;;;;15.28;62.16;99072.72;1732842;81;21028;-68
2022/04/16 08:46:48;;;;;;;19.42;11.08;;;;;;;15.65;61.55;99077.34;1737290;81;21090;-68
2022/04/16 08:49:14;;;;;;;18.30;13.15;;;;;;;15.96;58.38;99076.46;1725400;82;21118;-69
2022/04/16 08:51:43;;;;;;;18.98;11.85;;;;;;;15.98;57.65;99079.67;1740681;81;20964;-69
2022/04/16 08:54:13;;;;;;;19.98;11.90;;;;;;;15.83;57.89;99079.36;1729066;82;21051;-68
2022/04/16 08:56:46;;;;;;;15.58;10.85;;;;;;;15.73;57.50;99082.69;1725287;82;21089;-68
2022/04/16 08:59:15;;;;;;;17.17;10.98;;;;;;;15.61;58.83;99080.61;1726802;81;21075;-68
2022/04/16 09:01:43;;;;;;;18.90;11.95;;;;;;;15.49;57.65;99082.33;1696925;83;21016;-68
2022/04/16 09:04:28;;;;;;;16.20;11.35;;;;;;;15.16;58.87;99081.91;1710231;82;21452;-68
2022/04/16 09:07:02;;;;;;;20.62;12.50;;;;;;;15.07;59.99;99083.47;1744710;82;20933;-68
2022/04/16 09:09:31;;;;;;;17.80;11.73;;;;;;;14.93;59.48;99089.23;1704137;82;21058;-69
2022/04/16 09:12:02;;;;;;;20.25;12.28;;;;;;;14.76;59.74;99100.05;1684248;83;21433;-69
2022/04/16 09:14:35;;;;;;;17.20;11.55;;;;;;;14.56;60.36;99102.45;1685726;83;21283;-69
2022/04/16 09:17:10;;;;;;;17.25;11.35;;;;;;;14.39;60.69;99107.13;1708865;83;21690;-69
2022/04/16 09:19:38;;;;;;;20.75;11.60;;;;;;;14.28;60.91;99108.78;1681630;83;21089;-73
2022/04/16 09:22:10;;;;;;;24.57;11.38;;;;;;;14.13;61.66;99116.41;1700980;83;20895;-74
2022/04/16 09:24:47;;;;;;;15.03;10.72;;;;;;;14.04;62.26;99118.51;1692449;83;21064;-75
2022/04/16 09:27:16;;;;;;;16.82;10.82;;;;;;;13.97;62.27;99117.72;1694982;83;20930;-73
2022/04/16 09:29:44;;;;;;;18.52;11.35;;;;;;;13.87;62.41;99125.09;1698944;83;21001;-74
2022/04/16 09:32:24;;;;;;;18.95;11.30;;;;;;;13.72;63.00;99118.94;1697508;83;20921;-75
2022/04/16 09:34:53;;;;;;;17.27;12.40;;;;;;;13.59;63.66;99122.28;1694380;83;21052;-76
2022/04/16 09:37:24;;;;;;;16.95;12.28;;;;;;;13.60;64.23;99130.78;1683264;83;20927;-75
2022/04/16 09:39:53;;;;;;;18.42;12.23;;;;;;;13.59;63.68;99129.17;1708945;83;21116;-74
2022/04/16 09:42:27;;;;;;;19.60;11.90;;;;;;;13.41;64.03;99128.59;1676567;83;21017;-73
2022/04/16 09:44:58;;;;;;;16.40;7.05;;;;;;;13.26;64.87;99149.17;1688009;83;20919;-75
2022/04/16 09:47:26;;;;;;;10.68;5.58;;;;;;;13.04;67.07;99169.09;1703220;83;21443;-70
2022/04/16 09:49:57;;;;;;;6.30;4.12;;;;;;;12.54;68.72;99174.22;1691734;83;21108;-77
2022/04/16 09:52:24;;;;;;;6.72;4.10;;;;;;;12.10;70.83;99170.23;1675674;85;21143;-68
2022/04/16 09:54:54;;;;;;;8.03;4.17;;;;;;;11.67;72.88;99183.41;1664179;85;21067;-70
2022/04/16 09:57:21;;;;;;;8.63;4.45;;;;;;;11.28;74.38;99180.45;1662348;85;20900;-70
2022/04/16 09:59:53;;;;;;;8.28;3.95;;;;;;;11.01;75.77;99189.33;1672452;84;21015;-70
2022/04/16 10:02:28;;;;;;;9.93;4.03;;;;;;;10.78;76.69;99199.74;1669537;84;21027;-69
2022/04/16 10:04:54;;;;;;;;;;;;;;;10.54;77.94;99207.67;1664159;84;21762;-70
2022/04/16 10:07:24;;;;;;;10.95;3.65;;;;;;;10.31;78.71;99217.22;1684945;83;20556;-70
2022/04/16 10:09:55;;;;;;;4.60;3.05;;;;;;;10.12;80.03;99213.37;1699122;83;21431;-68
2022/04/16 10:15:16;;;;;;;8.03;4.03;;;;;;;9.81;81.82;99224.45;1700159;82;20954;-67
2022/04/16 10:17:50;;;;;;;7.87;3.90;;;;;;;9.73;82.73;99230.72;1706220;82;21913;-69
2022/04/16 10:20:20;;;;;;;7.97;4.42;;;;;;;9.69;83.42;99238.77;1678219;83;21512;-68
2022/04/16 10:23:07;;;;;;;10.10;4.00;;;;;;;9.60;83.80;99233.81;1689337;84;20938;-68
2022/04/16 10:25:37;;;;;;;6.87;3.60;;;;;;;9.53;84.50;99236.20;1689810;83;21501;-68
2022/04/16 10:28:09;;;;;;;6.87;3.62;;;;;;;9.47;84.94;99242.95;1703678;83;20971;-69
2022/04/16 10:30:44;;;;;;;11.97;4.20;;;;;;;9.43;85.26;99238.66;1704955;83;21148;-70
2022/04/16 10:33:22;;;;;;;5.92;3.45;;;;;;;9.40;85.73;99249.44;1719148;83;21436;-68
2022/04/16 10:36:00;;;;;;;10.50;4.35;;;;;;;9.38;86.34;99248.38;1692660;83;20939;-68
2022/04/16 10:38:38;;;;;;;4.42;3.05;;;;;;;9.32;86.95;99252.94;1688267;83;20925;-66
2022/04/16 10:41:12;;;;;;;2.85;2.45;;;;;;;9.23;87.40;99257.03;1685932;83;20903;-67
2022/04/16 10:43:39;;;;;;;3.75;2.27;;;;;;;9.05;88.00;99256.67;1697065;83;21258;-68
2022/04/16 10:46:07;;;;;;;2.12;1.92;;;;;;;8.85;88.51;99263.46;1701939;83;20901;-67
2022/04/16 10:48:37;;;;;;;2.85;1.72;;;;;;;8.69;89.35;99269.86;1701468;83;20956;-68
2022/04/16 10:51:08;;;;;;;1.20;1.10;;;;;;;8.57;90.00;99266.89;1700697;83;20974;-68
2022/04/16 10:53:37;;;;;;;2.75;1.45;;;;;;;8.43;90.45;99269.66;1696063;82;20947;-68
2022/04/16 10:56:14;;;;;;;2.90;1.50;;;;;;;8.33;91.13;99275.36;1731001;81;21451;-68
2022/04/16 10:59:04;;;;;;;4.37;1.07;;;;;;;8.29;91.72;99278.42;1722588;82;20924;-68
2022/04/16 11:01:31;;;;;;;1.25;0.50;;;;;;;8.29;91.43;99277.87;1721115;82;20932;-67
2022/04/16 11:03:58;;;;;;;2.25;0.70;;;;;;;8.25;89.97;99289.72;1730386;82;20909;-68
2022/04/16 11:06:35;;;;;;;2.42;0.95;;;;;;;8.17;88.42;99298.09;1723671;82;21004;-67
2022/04/16 11:09:02;;;;;;;2.55;0.85;;;;;;;8.09;88.62;99299.36;1723306;81;21899;-67
2022/04/16 11:11:31;;;;;;;1.20;0.82;;;;;;;8.03;88.95;99293.77;1735348;81;21471;-69
2022/04/16 11:13:59;;;;;;;3.33;0.80;;;;;;;7.98;88.94;99296.05;1736922;82;20949;-70
2022/04/16 11:16:26;;;;;;;2.45;1.00;;;;;;;7.99;89.10;99306.44;1700973;82;20954;-69
2022/04/16 11:18:55;;;;;;;0.75;0.60;;;;;;;7.98;89.19;99306.18;1734039;82;21519;-72
2022/04/16 11:21:29;;;;;;;2.17;0.68;;;;;;;8.00;88.55;99303.95;1710988;82;21955;-70
2022/04/16 11:24:03;;;;;;;2.75;0.70;;;;;;;8.02;88.54;99305.83;1712244;82;21031;-68
2022/04/16 11:34:58;;;;;;;3.08;1.40;;;;;;;7.87;87.99;99315.14;1733921;82;21261;-77
2022/04/16 11:37:26;;;;;;;1.35;0.82;;;;;;;7.77;88.71;99322.16;1722012;82;21417;-75
2022/04/16 11:40:00;;;;;;;2.33;1.00;;;;;;;7.71;89.27;99319.27;1716048;82;20957;-80
2022/04/16 11:42:26;;;;;;;3.45;1.30;;;;;;;7.69;88.70;99327.77;1702957;82;21073;-71
2022/04/16 11:44:53;;;;;;;2.33;1.45;;;;;;;7.69;89.04;99331.87;1706975;82;21108;-75
2022/04/16 11:47:27;;;;;;;3.08;1.47;;;;;;;7.75;88.85;99323.02;1730337;81;21238;-67
2022/04/16 11:50:01;;;;;;;4.08;1.65;;;;;;;7.82;88.56;99331.08;1725617;82;20963;-66
2022/04/16 11:52:30;;;;;;;3.08;1.90;;;;;;;7.87;88.01;99329.61;1736791;81;21258;-69
2022/04/16 11:55:10;;;;;;;5.15;2.90;;;;;;;7.88;87.63;99333.97;1750958;81;20980;-70